sensor_id;sensor_type;location;lat;lon;timestamp;P1;durP1;ratioP1;P2;durP2;ratioP2
4051;SDS011;2040;50.924;11.604;2023-02-28T00:00:20;3.37;;;3.03;;
4051;SDS011;2040;50.924;11.604;2023-02-28T00:02:47;5.43;;;2.50;;
4051;SDS011;2040;50.924;11.604;2023-02-28T00:05:13;3.50;;;2.80;;
4051;SDS011;2040;50.924;11.604;2023-02-28T00:07:40;3.87;;;1.77;;
4051;SDS011;2040;50.924;11.604;2023-02-28T00:10:07;5.57;;;2.90;;
4051;SDS011;2040;50.924;11.604;2023-02-28T00:12:38;5.07;;;3.07;;
4051;SDS011;2040;50.924;11.604;2023-02-28T00:15:08;3.70;;;2.90;;
4051;SDS011;2040;50.924;11.604;2023-02-28T00:17:35;4.40;;;2.60;;
4051;SDS011;2040;50.924;11.604;2023-02-28T00:20:01;4.13;;;2.37;;
4051;SDS011;2040;50.924;11.604;2023-02-28T00:22:29;4.57;;;1.87;;
4051;SDS011;2040;50.924;11.604;2023-02-28T00:24:55;3.17;;;2.33;;
4051;SDS011;2040;50.924;11.604;2023-02-28T00:27:21;9.60;;;2.70;;
4051;SDS011;2040;50.924;11.604;2023-02-28T00:29:46;5.60;;;2.60;;
4051;SDS011;2040;50.924;11.604;2023-02-28T00:32:12;5.00;;;2.80;;
4051;SDS011;2040;50.924;11.604;2023-02-28T00:34:38;3.40;;;2.40;;
4051;SDS011;2040;50.924;11.604;2023-02-28T00:37:05;2.40;;;1.97;;
4051;SDS011;2040;50.924;11.604;2023-02-28T00:39:31;5.40;;;3.60;;
4051;SDS011;2040;50.924;11.604;2023-02-28T00:42:02;3.80;;;2.30;;
4051;SDS011;2040;50.924;11.604;2023-02-28T00:44:28;4.03;;;2.53;;
4051;SDS011;2040;50.924;11.604;2023-02-28T00:46:54;3.73;;;2.10;;
4051;SDS011;2040;50.924;11.604;2023-02-28T00:49:21;3.47;;;2.53;;
4051;SDS011;2040;50.924;11.604;2023-02-28T00:51:47;3.80;;;2.40;;
4051;SDS011;2040;50.924;11.604;2023-02-28T00:54:13;3.10;;;2.43;;
4051;SDS011;2040;50.924;11.604;2023-02-28T00:56:39;4.50;;;2.37;;
4051;SDS011;2040;50.924;11.604;2023-02-28T00:59:05;5.43;;;2.77;;
4051;SDS011;2040;50.924;11.604;2023-02-28T01:01:30;3.33;;;2.03;;
4051;SDS011;2040;50.924;11.604;2023-02-28T01:03:56;2.67;;;1.90;;
4051;SDS011;2040;50.924;11.604;2023-02-28T01:06:22;2.83;;;2.37;;
4051;SDS011;2040;50.924;11.604;2023-02-28T01:08:47;2.90;;;2.40;;
4051;SDS011;2040;50.924;11.604;2023-02-28T01:11:14;2.37;;;2.17;;
4051;SDS011;2040;50.924;11.604;2023-02-28T01:13:41;3.60;;;2.87;;
4051;SDS011;2040;50.924;11.604;2023-02-28T01:16:07;3.27;;;2.53;;
4051;SDS011;2040;50.924;11.604;2023-02-28T01:18:33;2.70;;;2.07;;
4051;SDS011;2040;50.924;11.604;2023-02-28T01:21:02;4.27;;;2.30;;
4051;SDS011;2040;50.924;11.604;2023-02-28T01:23:32;3.70;;;2.30;;
4051;SDS011;2040;50.924;11.604;2023-02-28T01:26:03;4.70;;;2.77;;
4051;SDS011;2040;50.924;11.604;2023-02-28T01:28:33;4.70;;;2.63;;
4051;SDS011;2040;50.924;11.604;2023-02-28T01:30:58;10.83;;;2.83;;
4051;SDS011;2040;50.924;11.604;2023-02-28T01:33:24;3.17;;;2.40;;
4051;SDS011;2040;50.924;11.604;2023-02-28T01:35:57;2.33;;;2.13;;
4051;SDS011;2040;50.924;11.604;2023-02-28T01:38:23;11.93;;;3.53;;
4051;SDS011;2040;50.924;11.604;2023-02-28T01:40:49;3.57;;;2.53;;
4051;SDS011;2040;50.924;11.604;2023-02-28T01:43:20;5.13;;;3.00;;
4051;SDS011;2040;50.924;11.604;2023-02-28T01:45:54;3.83;;;2.83;;
4051;SDS011;2040;50.924;11.604;2023-02-28T01:48:21;5.00;;;2.90;;
4051;SDS011;2040;50.924;11.604;2023-02-28T01:50:51;2.87;;;2.30;;
4051;SDS011;2040;50.924;11.604;2023-02-28T01:53:18;4.07;;;2.37;;
4051;SDS011;2040;50.924;11.604;2023-02-28T01:55:49;2.97;;;1.77;;
4051;SDS011;2040;50.924;11.604;2023-02-28T01:58:17;4.13;;;2.80;;
4051;SDS011;2040;50.924;11.604;2023-02-28T02:00:42;5.43;;;2.63;;
4051;SDS011;2040;50.924;11.604;2023-02-28T02:03:09;3.27;;;2.97;;
4051;SDS011;2040;50.924;11.604;2023-02-28T02:05:39;3.13;;;2.40;;
4051;SDS011;2040;50.924;11.604;2023-02-28T02:08:09;4.27;;;2.93;;
4051;SDS011;2040;50.924;11.604;2023-02-28T02:10:44;3.57;;;2.17;;
4051;SDS011;2040;50.924;11.604;2023-02-28T02:16:09;4.20;;;2.70;;
4051;SDS011;2040;50.924;11.604;2023-02-28T02:18:58;3.10;;;2.20;;
4051;SDS011;2040;50.924;11.604;2023-02-28T02:27:54;7.27;;;2.30;;
4051;SDS011;2040;50.924;11.604;2023-02-28T02:30:37;2.30;;;1.80;;
4051;SDS011;2040;50.924;11.604;2023-02-28T02:33:36;3.10;;;2.80;;
4051;SDS011;2040;50.924;11.604;2023-02-28T02:36:05;4.90;;;2.70;;
4051;SDS011;2040;50.924;11.604;2023-02-28T02:38:41;2.33;;;2.00;;
4051;SDS011;2040;50.924;11.604;2023-02-28T02:44:15;3.03;;;1.97;;
4051;SDS011;2040;50.924;11.604;2023-02-28T02:47:01;2.40;;;2.20;;
4051;SDS011;2040;50.924;11.604;2023-02-28T02:49:33;2.30;;;2.10;;
4051;SDS011;2040;50.924;11.604;2023-02-28T02:52:02;3.30;;;2.20;;
4051;SDS011;2040;50.924;11.604;2023-02-28T02:54:32;3.47;;;1.90;;
4051;SDS011;2040;50.924;11.604;2023-02-28T02:57:03;4.53;;;2.27;;
4051;SDS011;2040;50.924;11.604;2023-02-28T02:59:33;3.80;;;1.67;;
4051;SDS011;2040;50.924;11.604;2023-02-28T03:02:03;5.83;;;2.80;;
4051;SDS011;2040;50.924;11.604;2023-02-28T03:04:32;4.17;;;2.47;;
4051;SDS011;2040;50.924;11.604;2023-02-28T03:07:02;2.20;;;1.73;;
4051;SDS011;2040;50.924;11.604;2023-02-28T03:09:28;3.87;;;2.80;;
4051;SDS011;2040;50.924;11.604;2023-02-28T03:11:54;5.13;;;2.10;;
4051;SDS011;2040;50.924;11.604;2023-02-28T03:14:37;4.17;;;2.27;;
4051;SDS011;2040;50.924;11.604;2023-02-28T03:23:10;3.23;;;2.23;;
4051;SDS011;2040;50.924;11.604;2023-02-28T03:25:56;3.57;;;1.97;;
4051;SDS011;2040;50.924;11.604;2023-02-28T03:31:30;6.00;;;2.60;;
4051;SDS011;2040;50.924;11.604;2023-02-28T03:36:30;2.10;;;1.47;;
4051;SDS011;2040;50.924;11.604;2023-02-28T03:39:07;2.73;;;2.03;;
4051;SDS011;2040;50.924;11.604;2023-02-28T03:41:41;7.60;;;1.70;;
4051;SDS011;2040;50.924;11.604;2023-02-28T03:44:23;6.40;;;2.23;;
4051;SDS011;2040;50.924;11.604;2023-02-28T03:46:56;4.33;;;2.03;;
4051;SDS011;2040;50.924;11.604;2023-02-28T03:49:52;2.20;;;1.87;;
4051;SDS011;2040;50.924;11.604;2023-02-28T03:52:20;5.10;;;2.10;;
4051;SDS011;2040;50.924;11.604;2023-02-28T03:54:52;4.00;;;2.80;;
4051;SDS011;2040;50.924;11.604;2023-02-28T03:57:26;3.50;;;2.20;;
4051;SDS011;2040;50.924;11.604;2023-02-28T04:00:25;8.03;;;2.87;;
4051;SDS011;2040;50.924;11.604;2023-02-28T04:02:54;4.13;;;2.70;;
4051;SDS011;2040;50.924;11.604;2023-02-28T04:05:20;2.67;;;1.30;;
4051;SDS011;2040;50.924;11.604;2023-02-28T04:07:46;3.17;;;2.40;;
4051;SDS011;2040;50.924;11.604;2023-02-28T04:10:13;2.63;;;1.80;;
4051;SDS011;2040;50.924;11.604;2023-02-28T04:12:39;2.73;;;2.00;;
4051;SDS011;2040;50.924;11.604;2023-02-28T04:15:05;3.70;;;2.00;;
4051;SDS011;2040;50.924;11.604;2023-02-28T04:17:31;2.20;;;1.60;;
4051;SDS011;2040;50.924;11.604;2023-02-28T04:19:56;2.23;;;2.00;;
4051;SDS011;2040;50.924;11.604;2023-02-28T04:22:22;3.23;;;1.77;;
4051;SDS011;2040;50.924;11.604;2023-02-28T04:24:51;2.80;;;1.30;;
4051;SDS011;2040;50.924;11.604;2023-02-28T04:27:19;5.27;;;2.33;;
4051;SDS011;2040;50.924;11.604;2023-02-28T04:29:45;3.43;;;2.10;;
4051;SDS011;2040;50.924;11.604;2023-02-28T04:32:11;2.80;;;2.00;;
4051;SDS011;2040;50.924;11.604;2023-02-28T04:34:36;2.83;;;1.70;;
4051;SDS011;2040;50.924;11.604;2023-02-28T04:37:02;2.37;;;2.17;;
4051;SDS011;2040;50.924;11.604;2023-02-28T04:39:28;2.97;;;2.20;;
4051;SDS011;2040;50.924;11.604;2023-02-28T04:41:54;2.60;;;2.00;;
4051;SDS011;2040;50.924;11.604;2023-02-28T04:44:21;3.63;;;1.63;;
4051;SDS011;2040;50.924;11.604;2023-02-28T04:46:47;2.63;;;1.90;;
4051;SDS011;2040;50.924;11.604;2023-02-28T04:49:13;2.10;;;1.53;;
4051;SDS011;2040;50.924;11.604;2023-02-28T04:51:40;3.10;;;1.77;;
4051;SDS011;2040;50.924;11.604;2023-02-28T04:54:06;2.37;;;2.00;;
4051;SDS011;2040;50.924;11.604;2023-02-28T04:56:31;2.37;;;1.60;;
4051;SDS011;2040;50.924;11.604;2023-02-28T04:58:57;3.37;;;2.00;;
4051;SDS011;2040;50.924;11.604;2023-02-28T05:01:32;3.03;;;1.77;;
4051;SDS011;2040;50.924;11.604;2023-02-28T05:04:00;5.10;;;2.27;;
4051;SDS011;2040;50.924;11.604;2023-02-28T05:06:27;3.60;;;1.97;;
4051;SDS011;2040;50.924;11.604;2023-02-28T05:08:55;9.97;;;4.23;;
4051;SDS011;2040;50.924;11.604;2023-02-28T05:11:30;1.60;;;1.27;;
4051;SDS011;2040;50.924;11.604;2023-02-28T05:14:04;4.13;;;1.90;;
4051;SDS011;2040;50.924;11.604;2023-02-28T05:16:31;3.00;;;2.10;;
4051;SDS011;2040;50.924;11.604;2023-02-28T05:18:58;3.57;;;1.80;;
4051;SDS011;2040;50.924;11.604;2023-02-28T05:23:52;7.73;;;2.57;;
4051;SDS011;2040;50.924;11.604;2023-02-28T05:26:19;10.63;;;2.73;;
4051;SDS011;2040;50.924;11.604;2023-02-28T05:28:45;9.27;;;2.07;;
4051;SDS011;2040;50.924;11.604;2023-02-28T05:31:11;4.60;;;2.00;;
4051;SDS011;2040;50.924;11.604;2023-02-28T05:33:36;3.37;;;1.77;;
4051;SDS011;2040;50.924;11.604;2023-02-28T05:36:02;4.77;;;2.57;;
4051;SDS011;2040;50.924;11.604;2023-02-28T05:38:28;1.57;;;1.30;;
4051;SDS011;2040;50.924;11.604;2023-02-28T05:40:54;4.17;;;3.33;;
4051;SDS011;2040;50.924;11.604;2023-02-28T05:43:19;3.10;;;2.07;;
4051;SDS011;2040;50.924;11.604;2023-02-28T05:45:45;2.17;;;1.93;;
4051;SDS011;2040;50.924;11.604;2023-02-28T05:48:10;4.53;;;2.50;;
4051;SDS011;2040;50.924;11.604;2023-02-28T05:50:36;3.87;;;1.80;;
4051;SDS011;2040;50.924;11.604;2023-02-28T05:53:02;3.77;;;2.13;;
4051;SDS011;2040;50.924;11.604;2023-02-28T05:55:27;4.30;;;2.00;;
4051;SDS011;2040;50.924;11.604;2023-02-28T05:57:53;3.23;;;2.00;;
4051;SDS011;2040;50.924;11.604;2023-02-28T06:00:18;3.57;;;1.80;;
4051;SDS011;2040;50.924;11.604;2023-02-28T06:02:44;3.33;;;1.90;;
4051;SDS011;2040;50.924;11.604;2023-02-28T06:05:14;2.10;;;1.90;;
4051;SDS011;2040;50.924;11.604;2023-02-28T06:07:41;5.00;;;3.20;;
4051;SDS011;2040;50.924;11.604;2023-02-28T06:10:08;2.50;;;2.30;;
4051;SDS011;2040;50.924;11.604;2023-02-28T06:12:34;4.20;;;2.80;;
4051;SDS011;2040;50.924;11.604;2023-02-28T06:15:00;2.97;;;2.00;;
4051;SDS011;2040;50.924;11.604;2023-02-28T06:17:26;2.00;;;1.60;;
4051;SDS011;2040;50.924;11.604;2023-02-28T06:19:51;4.87;;;2.33;;
4051;SDS011;2040;50.924;11.604;2023-02-28T06:22:17;4.27;;;2.03;;
4051;SDS011;2040;50.924;11.604;2023-02-28T06:24:42;4.67;;;2.67;;
4051;SDS011;2040;50.924;11.604;2023-02-28T06:27:08;2.20;;;2.00;;
4051;SDS011;2040;50.924;11.604;2023-02-28T06:29:34;3.70;;;2.43;;
4051;SDS011;2040;50.924;11.604;2023-02-28T06:32:00;2.80;;;2.27;;
4051;SDS011;2040;50.924;11.604;2023-02-28T06:34:26;3.13;;;2.60;;
4051;SDS011;2040;50.924;11.604;2023-02-28T06:36:52;8.33;;;3.93;;
4051;SDS011;2040;50.924;11.604;2023-02-28T06:39:18;2.60;;;2.40;;
4051;SDS011;2040;50.924;11.604;2023-02-28T06:41:44;4.30;;;2.50;;
4051;SDS011;2040;50.924;11.604;2023-02-28T06:44:14;4.43;;;2.37;;
4051;SDS011;2040;50.924;11.604;2023-02-28T06:46:42;2.90;;;2.27;;
4051;SDS011;2040;50.924;11.604;2023-02-28T06:49:09;6.10;;;2.73;;
4051;SDS011;2040;50.924;11.604;2023-02-28T06:51:36;8.60;;;3.17;;
4051;SDS011;2040;50.924;11.604;2023-02-28T06:54:03;11.70;;;3.27;;
4051;SDS011;2040;50.924;11.604;2023-02-28T06:56:29;3.60;;;2.50;;
4051;SDS011;2040;50.924;11.604;2023-02-28T06:58:55;3.43;;;2.33;;
4051;SDS011;2040;50.924;11.604;2023-02-28T07:01:21;5.00;;;2.30;;
4051;SDS011;2040;50.924;11.604;2023-02-28T07:03:48;8.20;;;3.73;;
4051;SDS011;2040;50.924;11.604;2023-02-28T07:06:17;4.40;;;3.10;;
4051;SDS011;2040;50.924;11.604;2023-02-28T07:08:47;7.87;;;3.57;;
4051;SDS011;2040;50.924;11.604;2023-02-28T07:11:13;4.27;;;2.77;;
4051;SDS011;2040;50.924;11.604;2023-02-28T07:13:39;6.30;;;2.63;;
4051;SDS011;2040;50.924;11.604;2023-02-28T07:16:06;5.80;;;2.53;;
4051;SDS011;2040;50.924;11.604;2023-02-28T07:18:36;7.60;;;4.00;;
4051;SDS011;2040;50.924;11.604;2023-02-28T07:21:03;4.87;;;2.90;;
4051;SDS011;2040;50.924;11.604;2023-02-28T07:23:30;3.20;;;1.70;;
4051;SDS011;2040;50.924;11.604;2023-02-28T07:25:55;5.70;;;2.30;;
4051;SDS011;2040;50.924;11.604;2023-02-28T07:28:21;2.97;;;2.03;;
4051;SDS011;2040;50.924;11.604;2023-02-28T07:30:47;5.53;;;3.03;;
4051;SDS011;2040;50.924;11.604;2023-02-28T07:33:14;5.00;;;2.67;;
4051;SDS011;2040;50.924;11.604;2023-02-28T07:35:39;5.23;;;2.40;;
4051;SDS011;2040;50.924;11.604;2023-02-28T07:38:05;2.77;;;1.80;;
4051;SDS011;2040;50.924;11.604;2023-02-28T07:40:32;5.43;;;2.93;;
4051;SDS011;2040;50.924;11.604;2023-02-28T07:42:59;5.03;;;2.30;;
4051;SDS011;2040;50.924;11.604;2023-02-28T07:45:25;5.20;;;2.60;;
4051;SDS011;2040;50.924;11.604;2023-02-28T07:47:51;2.70;;;2.03;;
4051;SDS011;2040;50.924;11.604;2023-02-28T07:50:17;3.90;;;2.37;;
4051;SDS011;2040;50.924;11.604;2023-02-28T07:52:43;6.17;;;2.23;;
4051;SDS011;2040;50.924;11.604;2023-02-28T07:55:09;4.10;;;2.87;;
4051;SDS011;2040;50.924;11.604;2023-02-28T07:57:35;4.77;;;3.00;;
4051;SDS011;2040;50.924;11.604;2023-02-28T08:00:02;4.47;;;2.60;;
4051;SDS011;2040;50.924;11.604;2023-02-28T08:02:29;2.87;;;2.23;;
4051;SDS011;2040;50.924;11.604;2023-02-28T08:04:55;5.47;;;3.50;;
4051;SDS011;2040;50.924;11.604;2023-02-28T08:07:21;3.40;;;2.50;;
4051;SDS011;2040;50.924;11.604;2023-02-28T08:09:46;4.80;;;2.70;;
4051;SDS011;2040;50.924;11.604;2023-02-28T08:12:12;3.87;;;2.40;;
4051;SDS011;2040;50.924;11.604;2023-02-28T08:14:38;4.40;;;2.87;;
4051;SDS011;2040;50.924;11.604;2023-02-28T08:17:04;4.27;;;2.73;;
4051;SDS011;2040;50.924;11.604;2023-02-28T08:19:30;6.07;;;3.07;;
4051;SDS011;2040;50.924;11.604;2023-02-28T08:21:56;3.93;;;2.50;;
4051;SDS011;2040;50.924;11.604;2023-02-28T08:24:22;7.03;;;3.57;;
4051;SDS011;2040;50.924;11.604;2023-02-28T08:26:48;3.20;;;2.90;;
4051;SDS011;2040;50.924;11.604;2023-02-28T08:29:13;6.73;;;3.20;;
4051;SDS011;2040;50.924;11.604;2023-02-28T08:31:39;4.57;;;2.77;;
4051;SDS011;2040;50.924;11.604;2023-02-28T08:34:08;5.90;;;3.77;;
4051;SDS011;2040;50.924;11.604;2023-02-28T08:36:35;3.93;;;2.97;;
4051;SDS011;2040;50.924;11.604;2023-02-28T08:39:01;7.20;;;3.20;;
4051;SDS011;2040;50.924;11.604;2023-02-28T08:41:27;5.57;;;3.70;;
4051;SDS011;2040;50.924;11.604;2023-02-28T08:43:53;6.23;;;2.93;;
4051;SDS011;2040;50.924;11.604;2023-02-28T08:46:18;10.93;;;3.03;;
4051;SDS011;2040;50.924;11.604;2023-02-28T08:48:45;6.70;;;2.83;;
4051;SDS011;2040;50.924;11.604;2023-02-28T08:51:13;5.17;;;2.90;;
4051;SDS011;2040;50.924;11.604;2023-02-28T08:53:41;7.43;;;3.23;;
4051;SDS011;2040;50.924;11.604;2023-02-28T08:56:08;6.10;;;3.70;;
4051;SDS011;2040;50.924;11.604;2023-02-28T08:58:35;5.13;;;3.03;;
4051;SDS011;2040;50.924;11.604;2023-02-28T09:01:07;7.40;;;3.10;;
4051;SDS011;2040;50.924;11.604;2023-02-28T09:03:38;7.87;;;3.67;;
4051;SDS011;2040;50.924;11.604;2023-02-28T09:06:04;4.90;;;2.90;;
4051;SDS011;2040;50.924;11.604;2023-02-28T09:08:30;5.33;;;2.80;;
4051;SDS011;2040;50.924;11.604;2023-02-28T09:10:56;4.00;;;3.10;;
4051;SDS011;2040;50.924;11.604;2023-02-28T09:13:23;5.83;;;3.53;;
4051;SDS011;2040;50.924;11.604;2023-02-28T09:15:49;4.73;;;2.57;;
4051;SDS011;2040;50.924;11.604;2023-02-28T09:18:15;5.43;;;3.53;;
4051;SDS011;2040;50.924;11.604;2023-02-28T09:20:44;4.10;;;2.90;;
4051;SDS011;2040;50.924;11.604;2023-02-28T09:23:11;5.47;;;2.60;;
4051;SDS011;2040;50.924;11.604;2023-02-28T09:25:37;2.93;;;2.03;;
4051;SDS011;2040;50.924;11.604;2023-02-28T09:28:09;5.33;;;2.60;;
4051;SDS011;2040;50.924;11.604;2023-02-28T09:30:36;3.53;;;2.33;;
4051;SDS011;2040;50.924;11.604;2023-02-28T09:33:02;2.40;;;1.80;;
4051;SDS011;2040;50.924;11.604;2023-02-28T09:35:28;4.67;;;2.80;;
4051;SDS011;2040;50.924;11.604;2023-02-28T09:37:55;3.73;;;2.00;;
4051;SDS011;2040;50.924;11.604;2023-02-28T09:40:22;4.30;;;2.63;;
4051;SDS011;2040;50.924;11.604;2023-02-28T09:42:50;2.40;;;1.77;;
4051;SDS011;2040;50.924;11.604;2023-02-28T09:45:23;2.93;;;2.40;;
4051;SDS011;2040;50.924;11.604;2023-02-28T09:47:54;3.43;;;2.43;;
4051;SDS011;2040;50.924;11.604;2023-02-28T09:50:33;2.13;;;1.57;;
4051;SDS011;2040;50.924;11.604;2023-02-28T09:53:11;5.10;;;2.13;;
4051;SDS011;2040;50.924;11.604;2023-02-28T09:55:51;3.23;;;2.30;;
4051;SDS011;2040;50.924;11.604;2023-02-28T09:58:32;4.00;;;2.20;;
4051;SDS011;2040;50.924;11.604;2023-02-28T10:06:50;4.33;;;1.70;;
4051;SDS011;2040;50.924;11.604;2023-02-28T10:09:22;4.37;;;2.07;;
4051;SDS011;2040;50.924;11.604;2023-02-28T10:12:06;4.13;;;2.90;;
4051;SDS011;2040;50.924;11.604;2023-02-28T10:14:34;8.93;;;2.57;;
4051;SDS011;2040;50.924;11.604;2023-02-28T10:25:23;4.30;;;2.40;;
4051;SDS011;2040;50.924;11.604;2023-02-28T10:27:55;3.80;;;2.40;;
4051;SDS011;2040;50.924;11.604;2023-02-28T10:30:26;6.37;;;2.50;;
4051;SDS011;2040;50.924;11.604;2023-02-28T10:32:52;3.87;;;2.80;;
4051;SDS011;2040;50.924;11.604;2023-02-28T10:35:20;4.10;;;2.33;;
4051;SDS011;2040;50.924;11.604;2023-02-28T10:37:49;4.53;;;3.00;;
4051;SDS011;2040;50.924;11.604;2023-02-28T10:43:17;4.43;;;2.70;;
4051;SDS011;2040;50.924;11.604;2023-02-28T10:45:59;4.30;;;2.53;;
4051;SDS011;2040;50.924;11.604;2023-02-28T10:48:30;3.03;;;2.20;;
4051;SDS011;2040;50.924;11.604;2023-02-28T10:50:56;5.60;;;3.27;;
4051;SDS011;2040;50.924;11.604;2023-02-28T11:01:16;5.13;;;3.17;;
4051;SDS011;2040;50.924;11.604;2023-02-28T11:04:12;4.60;;;2.57;;
4051;SDS011;2040;50.924;11.604;2023-02-28T11:06:47;4.20;;;2.90;;
4051;SDS011;2040;50.924;11.604;2023-02-28T11:09:25;4.63;;;2.97;;
4051;SDS011;2040;50.924;11.604;2023-02-28T11:11:56;5.07;;;2.90;;
4051;SDS011;2040;50.924;11.604;2023-02-28T11:14:26;4.47;;;3.20;;
4051;SDS011;2040;50.924;11.604;2023-02-28T11:16:54;4.00;;;3.50;;
4051;SDS011;2040;50.924;11.604;2023-02-28T11:19:30;5.20;;;3.93;;
4051;SDS011;2040;50.924;11.604;2023-02-28T11:22:04;4.50;;;3.50;;
4051;SDS011;2040;50.924;11.604;2023-02-28T11:26:59;5.13;;;3.40;;
4051;SDS011;2040;50.924;11.604;2023-02-28T11:29:26;3.97;;;2.87;;
4051;SDS011;2040;50.924;11.604;2023-02-28T11:34:30;5.37;;;3.63;;
4051;SDS011;2040;50.924;11.604;2023-02-28T11:36:57;4.87;;;2.83;;
4051;SDS011;2040;50.924;11.604;2023-02-28T11:39:26;4.83;;;2.80;;
4051;SDS011;2040;50.924;11.604;2023-02-28T11:47:39;7.23;;;3.10;;
4051;SDS011;2040;50.924;11.604;2023-02-28T12:06:22;26.17;;;5.17;;
4051;SDS011;2040;50.924;11.604;2023-02-28T12:11:52;5.60;;;3.10;;
4051;SDS011;2040;50.924;11.604;2023-02-28T12:14:25;5.73;;;3.20;;
4051;SDS011;2040;50.924;11.604;2023-02-28T12:19:45;9.80;;;4.07;;
4051;SDS011;2040;50.924;11.604;2023-02-28T12:25:22;6.40;;;2.93;;
4051;SDS011;2040;50.924;11.604;2023-02-28T12:28:10;4.00;;;3.10;;
4051;SDS011;2040;50.924;11.604;2023-02-28T12:30:41;5.70;;;3.97;;
4051;SDS011;2040;50.924;11.604;2023-02-28T12:33:38;7.67;;;3.47;;
4051;SDS011;2040;50.924;11.604;2023-02-28T12:36:09;4.63;;;3.60;;
4051;SDS011;2040;50.924;11.604;2023-02-28T12:38:44;7.67;;;3.80;;
4051;SDS011;2040;50.924;11.604;2023-02-28T12:43:46;5.30;;;3.40;;
4051;SDS011;2040;50.924;11.604;2023-02-28T12:46:25;5.73;;;3.47;;
4051;SDS011;2040;50.924;11.604;2023-02-28T12:49:06;5.43;;;3.00;;
4051;SDS011;2040;50.924;11.604;2023-02-28T12:51:38;7.50;;;3.57;;
4051;SDS011;2040;50.924;11.604;2023-02-28T12:54:10;6.23;;;3.43;;
4051;SDS011;2040;50.924;11.604;2023-02-28T13:11:03;3.30;;;3.00;;
4051;SDS011;2040;50.924;11.604;2023-02-28T13:13:29;6.20;;;4.07;;
4051;SDS011;2040;50.924;11.604;2023-02-28T13:16:03;7.17;;;3.90;;
4051;SDS011;2040;50.924;11.604;2023-02-28T13:21:21;6.93;;;3.70;;
4051;SDS011;2040;50.924;11.604;2023-02-28T13:24:07;9.23;;;4.13;;
4051;SDS011;2040;50.924;11.604;2023-02-28T13:29:21;7.80;;;3.87;;
4051;SDS011;2040;50.924;11.604;2023-02-28T13:34:33;9.10;;;4.17;;
4051;SDS011;2040;50.924;11.604;2023-02-28T13:42:23;7.27;;;3.83;;
4051;SDS011;2040;50.924;11.604;2023-02-28T13:47:38;6.90;;;4.57;;
4051;SDS011;2040;50.924;11.604;2023-02-28T13:50:23;6.50;;;4.33;;
4051;SDS011;2040;50.924;11.604;2023-02-28T13:58:12;8.20;;;4.13;;
4051;SDS011;2040;50.924;11.604;2023-02-28T14:00:58;7.23;;;4.20;;
4051;SDS011;2040;50.924;11.604;2023-02-28T14:03:49;6.80;;;3.70;;
4051;SDS011;2040;50.924;11.604;2023-02-28T14:06:36;7.33;;;3.50;;
4051;SDS011;2040;50.924;11.604;2023-02-28T14:09:25;9.43;;;4.97;;
4051;SDS011;2040;50.924;11.604;2023-02-28T14:11:50;4.70;;;3.63;;
4051;SDS011;2040;50.924;11.604;2023-02-28T14:17:01;6.33;;;3.80;;
4051;SDS011;2040;50.924;11.604;2023-02-28T14:19:31;5.40;;;4.10;;
4051;SDS011;2040;50.924;11.604;2023-02-28T14:22:10;5.93;;;4.20;;
4051;SDS011;2040;50.924;11.604;2023-02-28T14:33:15;4.73;;;3.77;;
4051;SDS011;2040;50.924;11.604;2023-02-28T14:35:54;5.60;;;3.20;;
4051;SDS011;2040;50.924;11.604;2023-02-28T14:38:55;6.10;;;3.57;;
4051;SDS011;2040;50.924;11.604;2023-02-28T14:41:38;4.23;;;3.30;;
4051;SDS011;2040;50.924;11.604;2023-02-28T14:44:25;4.77;;;3.70;;
4051;SDS011;2040;50.924;11.604;2023-02-28T14:46:53;7.10;;;3.43;;
4051;SDS011;2040;50.924;11.604;2023-02-28T14:52:06;6.57;;;3.70;;
4051;SDS011;2040;50.924;11.604;2023-02-28T14:54:44;8.30;;;4.20;;
4051;SDS011;2040;50.924;11.604;2023-02-28T14:57:21;4.63;;;3.60;;
4051;SDS011;2040;50.924;11.604;2023-02-28T15:00:01;5.77;;;4.13;;
4051;SDS011;2040;50.924;11.604;2023-02-28T15:02:35;7.73;;;3.70;;
4051;SDS011;2040;50.924;11.604;2023-02-28T15:07:45;5.70;;;4.37;;
4051;SDS011;2040;50.924;11.604;2023-02-28T15:12:58;8.20;;;4.50;;
4051;SDS011;2040;50.924;11.604;2023-02-28T15:15:27;8.27;;;3.80;;
4051;SDS011;2040;50.924;11.604;2023-02-28T15:18:00;6.83;;;3.80;;
4051;SDS011;2040;50.924;11.604;2023-02-28T15:20:30;8.77;;;4.63;;
4051;SDS011;2040;50.924;11.604;2023-02-28T15:22:57;5.93;;;3.87;;
4051;SDS011;2040;50.924;11.604;2023-02-28T15:25:24;6.93;;;3.70;;
4051;SDS011;2040;50.924;11.604;2023-02-28T15:27:53;8.97;;;4.70;;
4051;SDS011;2040;50.924;11.604;2023-02-28T15:30:21;6.20;;;4.57;;
4051;SDS011;2040;50.924;11.604;2023-02-28T15:35:51;9.27;;;5.27;;
4051;SDS011;2040;50.924;11.604;2023-02-28T15:38:35;5.67;;;4.20;;
4051;SDS011;2040;50.924;11.604;2023-02-28T15:41:01;9.53;;;4.90;;
4051;SDS011;2040;50.924;11.604;2023-02-28T15:43:34;6.90;;;3.83;;
4051;SDS011;2040;50.924;11.604;2023-02-28T15:46:08;9.40;;;5.20;;
4051;SDS011;2040;50.924;11.604;2023-02-28T15:48:49;7.30;;;3.73;;
4051;SDS011;2040;50.924;11.604;2023-02-28T15:53:48;7.30;;;4.00;;
4051;SDS011;2040;50.924;11.604;2023-02-28T15:56:22;7.43;;;4.87;;
4051;SDS011;2040;50.924;11.604;2023-02-28T15:58:52;8.83;;;4.67;;
4051;SDS011;2040;50.924;11.604;2023-02-28T16:01:44;6.53;;;4.13;;
4051;SDS011;2040;50.924;11.604;2023-02-28T16:04:14;5.57;;;4.50;;
4051;SDS011;2040;50.924;11.604;2023-02-28T16:09:16;13.53;;;4.87;;
4051;SDS011;2040;50.924;11.604;2023-02-28T16:11:46;9.97;;;4.80;;
4051;SDS011;2040;50.924;11.604;2023-02-28T16:14:18;6.67;;;4.10;;
4051;SDS011;2040;50.924;11.604;2023-02-28T16:16:50;8.50;;;5.23;;
4051;SDS011;2040;50.924;11.604;2023-02-28T16:19:18;8.53;;;4.87;;
4051;SDS011;2040;50.924;11.604;2023-02-28T16:21:44;9.77;;;4.83;;
4051;SDS011;2040;50.924;11.604;2023-02-28T16:24:10;13.80;;;6.70;;
4051;SDS011;2040;50.924;11.604;2023-02-28T16:26:36;8.17;;;4.50;;
4051;SDS011;2040;50.924;11.604;2023-02-28T16:29:04;14.10;;;5.97;;
4051;SDS011;2040;50.924;11.604;2023-02-28T16:31:31;9.40;;;5.50;;
4051;SDS011;2040;50.924;11.604;2023-02-28T16:34:01;7.83;;;4.60;;
4051;SDS011;2040;50.924;11.604;2023-02-28T16:36:28;7.43;;;4.17;;
4051;SDS011;2040;50.924;11.604;2023-02-28T16:38:54;9.03;;;4.90;;
4051;SDS011;2040;50.924;11.604;2023-02-28T16:41:20;6.73;;;4.40;;
4051;SDS011;2040;50.924;11.604;2023-02-28T16:43:50;8.50;;;4.90;;
4051;SDS011;2040;50.924;11.604;2023-02-28T16:46:18;10.30;;;4.87;;
4051;SDS011;2040;50.924;11.604;2023-02-28T16:48:46;7.60;;;4.57;;
4051;SDS011;2040;50.924;11.604;2023-02-28T16:51:14;6.70;;;4.57;;
4051;SDS011;2040;50.924;11.604;2023-02-28T16:53:40;8.57;;;4.33;;
4051;SDS011;2040;50.924;11.604;2023-02-28T16:56:10;6.80;;;4.07;;
4051;SDS011;2040;50.924;11.604;2023-02-28T16:58:43;10.53;;;5.10;;
4051;SDS011;2040;50.924;11.604;2023-02-28T17:01:09;8.03;;;5.30;;
4051;SDS011;2040;50.924;11.604;2023-02-28T17:03:34;9.17;;;5.27;;
4051;SDS011;2040;50.924;11.604;2023-02-28T17:06:01;8.50;;;5.10;;
4051;SDS011;2040;50.924;11.604;2023-02-28T17:08:28;6.90;;;4.70;;
4051;SDS011;2040;50.924;11.604;2023-02-28T17:10:54;8.23;;;4.70;;
4051;SDS011;2040;50.924;11.604;2023-02-28T17:13:20;6.57;;;4.80;;
4051;SDS011;2040;50.924;11.604;2023-02-28T17:15:46;8.03;;;5.10;;
4051;SDS011;2040;50.924;11.604;2023-02-28T17:18:13;10.80;;;5.80;;
4051;SDS011;2040;50.924;11.604;2023-02-28T17:20:43;8.03;;;4.67;;
4051;SDS011;2040;50.924;11.604;2023-02-28T17:23:10;11.33;;;5.90;;
4051;SDS011;2040;50.924;11.604;2023-02-28T17:25:35;17.93;;;6.20;;
4051;SDS011;2040;50.924;11.604;2023-02-28T17:28:01;5.90;;;3.93;;
4051;SDS011;2040;50.924;11.604;2023-02-28T17:30:27;7.57;;;5.00;;
4051;SDS011;2040;50.924;11.604;2023-02-28T17:32:53;8.50;;;5.70;;
4051;SDS011;2040;50.924;11.604;2023-02-28T17:35:20;12.40;;;5.60;;
4051;SDS011;2040;50.924;11.604;2023-02-28T17:37:47;9.37;;;4.67;;
4051;SDS011;2040;50.924;11.604;2023-02-28T17:40:16;9.27;;;4.80;;
4051;SDS011;2040;50.924;11.604;2023-02-28T17:42:44;7.60;;;4.70;;
4051;SDS011;2040;50.924;11.604;2023-02-28T17:45:10;8.47;;;5.17;;
4051;SDS011;2040;50.924;11.604;2023-02-28T17:47:36;10.70;;;5.90;;